sensor_id;sensor_type;location;lat;lon;timestamp;pressure;altitude;pressure_sealevel;temperature
75431;BMP280;64127;51.488;5.462;2023-05-19T00:01:54;102399.34;;;15.26
75431;BMP280;64127;51.488;5.462;2023-05-19T00:04:27;102399.19;;;15.23
75431;BMP280;64127;51.488;5.462;2023-05-19T00:07:00;102399.94;;;15.20
75431;BMP280;64127;51.488;5.462;2023-05-19T00:09:33;102399.88;;;15.19
75431;BMP280;64127;51.488;5.462;2023-05-19T00:12:06;102389.84;;;15.12
75431;BMP280;64127;51.488;5.462;2023-05-19T00:14:39;102394.16;;;15.10
75431;BMP280;64127;51.488;5.462;2023-05-19T00:17:11;102395.00;;;15.09
75431;BMP280;64127;51.488;5.462;2023-05-19T00:19:43;102384.28;;;15.06
75431;BMP280;64127;51.488;5.462;2023-05-19T00:22:16;102384.88;;;15.00
75431;BMP280;64127;51.488;5.462;2023-05-19T00:24:48;102377.69;;;14.98
75431;BMP280;64127;51.488;5.462;2023-05-19T00:27:20;102382.97;;;14.98
75431;BMP280;64127;51.488;5.462;2023-05-19T00:29:51;102377.56;;;14.95
75431;BMP280;64127;51.488;5.462;2023-05-19T00:32:23;102362.53;;;14.76
75431;BMP280;64127;51.488;5.462;2023-05-19T00:34:56;102372.00;;;14.89
75431;BMP280;64127;51.488;5.462;2023-05-19T00:37:28;102374.53;;;14.87
75431;BMP280;64127;51.488;5.462;2023-05-19T00:40:00;102369.19;;;14.86
75431;BMP280;64127;51.488;5.462;2023-05-19T00:42:32;102366.41;;;14.83
75431;BMP280;64127;51.488;5.462;2023-05-19T00:45:05;102348.22;;;14.71
75431;BMP280;64127;51.488;5.462;2023-05-19T00:47:38;102365.94;;;14.73
75431;BMP280;64127;51.488;5.462;2023-05-19T00:50:10;102365.88;;;14.72
75431;BMP280;64127;51.488;5.462;2023-05-19T00:52:42;102365.78;;;14.70
75431;BMP280;64127;51.488;5.462;2023-05-19T00:55:15;102366.47;;;14.66
75431;BMP280;64127;51.488;5.462;2023-05-19T00:57:48;102362.72;;;14.61
75431;BMP280;64127;51.488;5.462;2023-05-19T01:00:21;102355.47;;;14.57
75431;BMP280;64127;51.488;5.462;2023-05-19T01:02:53;102356.44;;;14.59
75431;BMP280;64127;51.488;5.462;2023-05-19T01:05:26;102361.72;;;14.59
75431;BMP280;64127;51.488;5.462;2023-05-19T01:07:58;102366.06;;;14.59
75431;BMP280;64127;51.488;5.462;2023-05-19T01:10:31;102371.22;;;14.56
75431;BMP280;64127;51.488;5.462;2023-05-19T01:13:04;102365.78;;;14.53
75431;BMP280;64127;51.488;5.462;2023-05-19T01:16:00;102372.63;;;14.49
75431;BMP280;64127;51.488;5.462;2023-05-19T01:19:00;102368.88;;;14.44
75431;BMP280;64127;51.488;5.462;2023-05-19T01:30:43;102361.19;;;14.33
75431;BMP280;64127;51.488;5.462;2023-05-19T01:33:16;102374.50;;;14.34
75431;BMP280;64127;51.488;5.462;2023-05-19T01:35:50;102371.69;;;14.31
75431;BMP280;64127;51.488;5.462;2023-05-19T01:38:27;102375.00;;;14.27
75431;BMP280;64127;51.488;5.462;2023-05-19T01:41:01;102342.53;;;14.12
75431;BMP280;64127;51.488;5.462;2023-05-19T01:43:35;102378.44;;;14.26
75431;BMP280;64127;51.488;5.462;2023-05-19T01:46:07;102367.75;;;14.23
75431;BMP280;64127;51.488;5.462;2023-05-19T01:48:42;102373.84;;;14.22
75431;BMP280;64127;51.488;5.462;2023-05-19T01:51:15;102374.69;;;14.21
75431;BMP280;64127;51.488;5.462;2023-05-19T01:53:47;102367.44;;;14.17
75431;BMP280;64127;51.488;5.462;2023-05-19T01:56:51;102362.66;;;14.10
75431;BMP280;64127;51.488;5.462;2023-05-19T02:05:55;102360.44;;;14.01
75431;BMP280;64127;51.488;5.462;2023-05-19T02:08:40;102357.75;;;14.00
75431;BMP280;64127;51.488;5.462;2023-05-19T02:11:41;102360.22;;;13.97
75431;BMP280;64127;51.488;5.462;2023-05-19T02:14:27;102361.19;;;13.99
75431;BMP280;64127;51.488;5.462;2023-05-19T02:17:03;102340.28;;;13.86
75431;BMP280;64127;51.488;5.462;2023-05-19T02:19:38;102361.03;;;13.96
75431;BMP280;64127;51.488;5.462;2023-05-19T02:22:10;102358.31;;;13.94
75431;BMP280;64127;51.488;5.462;2023-05-19T02:24:42;102356.53;;;13.93
75431;BMP280;64127;51.488;5.462;2023-05-19T02:27:17;102351.09;;;13.90
75431;BMP280;64127;51.488;5.462;2023-05-19T02:29:49;102356.44;;;13.92
75431;BMP280;64127;51.488;5.462;2023-05-19T02:32:21;102355.19;;;13.85
75431;BMP280;64127;51.488;5.462;2023-05-19T02:34:53;102353.47;;;13.86
75431;BMP280;64127;51.488;5.462;2023-05-19T02:37:27;102356.88;;;13.83
75431;BMP280;64127;51.488;5.462;2023-05-19T02:39:59;102347.03;;;13.81
75431;BMP280;64127;51.488;5.462;2023-05-19T02:42:31;102351.59;;;13.83
75431;BMP280;64127;51.488;5.462;2023-05-19T02:45:04;102357.75;;;13.84
75431;BMP280;64127;51.488;5.462;2023-05-19T02:47:36;102356.78;;;13.82
75431;BMP280;64127;51.488;5.462;2023-05-19T02:50:09;102348.88;;;13.82
75431;BMP280;64127;51.488;5.462;2023-05-19T02:52:41;102347.88;;;13.80
75431;BMP280;64127;51.488;5.462;2023-05-19T02:55:13;102348.53;;;13.76
75431;BMP280;64127;51.488;5.462;2023-05-19T02:57:47;102344.09;;;13.75
75431;BMP280;64127;51.488;5.462;2023-05-19T03:00:20;102346.66;;;13.73
75431;BMP280;64127;51.488;5.462;2023-05-19T03:02:52;102343.78;;;13.68
75431;BMP280;64127;51.488;5.462;2023-05-19T03:05:24;102333.06;;;13.65
75431;BMP280;64127;51.488;5.462;2023-05-19T03:07:56;102343.44;;;13.62
75431;BMP280;64127;51.488;5.462;2023-05-19T03:10:29;102341.78;;;13.64
75431;BMP280;64127;51.488;5.462;2023-05-19T03:13:01;102342.59;;;13.63
75431;BMP280;64127;51.488;5.462;2023-05-19T03:15:33;102337.28;;;13.62
75431;BMP280;64127;51.488;5.462;2023-05-19T03:18:07;102344.09;;;13.58
75431;BMP280;64127;51.488;5.462;2023-05-19T03:20:39;102343.94;;;13.55
75431;BMP280;64127;51.488;5.462;2023-05-19T03:23:13;102343.03;;;13.55
75431;BMP280;64127;51.488;5.462;2023-05-19T03:25:45;102344.59;;;13.51
75431;BMP280;64127;51.488;5.462;2023-05-19T03:28:17;102353.31;;;13.50
75431;BMP280;64127;51.488;5.462;2023-05-19T03:30:49;102356.75;;;13.49
75431;BMP280;64127;51.488;5.462;2023-05-19T03:33:21;102354.81;;;13.45
75431;BMP280;64127;51.488;5.462;2023-05-19T03:35:56;102349.44;;;13.60
75431;BMP280;64127;51.488;5.462;2023-05-19T03:38:28;102355.72;;;13.46
75431;BMP280;64127;51.488;5.462;2023-05-19T03:41:00;102359.91;;;13.42
75431;BMP280;64127;51.488;5.462;2023-05-19T03:43:32;102365.00;;;13.39
75431;BMP280;64127;51.488;5.462;2023-05-19T03:46:04;102357.94;;;13.38
75431;BMP280;64127;51.488;5.462;2023-05-19T03:48:36;102363.38;;;13.41
75431;BMP280;64127;51.488;5.462;2023-05-19T03:51:08;102359.72;;;13.39
75431;BMP280;64127;51.488;5.462;2023-05-19T03:53:40;102361.38;;;13.37
75431;BMP280;64127;51.488;5.462;2023-05-19T03:56:12;102365.56;;;13.34
75431;BMP280;64127;51.488;5.462;2023-05-19T03:58:44;102370.41;;;13.26
75431;BMP280;64127;51.488;5.462;2023-05-19T04:01:17;102367.78;;;13.26
75431;BMP280;64127;51.488;5.462;2023-05-19T04:03:49;102360.63;;;13.24
75431;BMP280;64127;51.488;5.462;2023-05-19T04:06:21;102362.50;;;13.26
75431;BMP280;64127;51.488;5.462;2023-05-19T04:08:54;102367.78;;;13.26
75431;BMP280;64127;51.488;5.462;2023-05-19T04:11:26;102359.81;;;13.25
75431;BMP280;64127;51.488;5.462;2023-05-19T04:13:58;102358.91;;;13.24
75431;BMP280;64127;51.488;5.462;2023-05-19T04:16:30;102361.38;;;13.21
75431;BMP280;64127;51.488;5.462;2023-05-19T04:19:03;102368.34;;;13.20
75431;BMP280;64127;51.488;5.462;2023-05-19T04:21:35;102360.34;;;13.19
75431;BMP280;64127;51.488;5.462;2023-05-19T04:24:07;102362.91;;;13.17
75431;BMP280;64127;51.488;5.462;2023-05-19T04:26:39;102359.53;;;13.20
75431;BMP280;64127;51.488;5.462;2023-05-19T04:29:16;102362.00;;;13.17
75431;BMP280;64127;51.488;5.462;2023-05-19T04:31:49;102337.59;;;13.05
75431;BMP280;64127;51.488;5.462;2023-05-19T04:34:21;102368.94;;;13.15
75431;BMP280;64127;51.488;5.462;2023-05-19T04:36:53;102361.47;;;13.08
75431;BMP280;64127;51.488;5.462;2023-05-19T04:39:26;102366.53;;;13.05
75431;BMP280;64127;51.488;5.462;2023-05-19T04:41:58;102368.34;;;13.06
75431;BMP280;64127;51.488;5.462;2023-05-19T04:44:30;102365.13;;;13.10
75431;BMP280;64127;51.488;5.462;2023-05-19T04:47:03;102368.94;;;13.15
75431;BMP280;64127;51.488;5.462;2023-05-19T04:49:37;102364.38;;;13.12
75431;BMP280;64127;51.488;5.462;2023-05-19T04:52:12;102363.66;;;13.15
75431;BMP280;64127;51.488;5.462;2023-05-19T04:54:44;102368.94;;;13.15
75431;BMP280;64127;51.488;5.462;2023-05-19T04:57:16;102369.75;;;13.14
75431;BMP280;64127;51.488;5.462;2023-05-19T04:59:48;102369.63;;;13.12
75431;BMP280;64127;51.488;5.462;2023-05-19T05:02:20;102366.94;;;13.11
75431;BMP280;64127;51.488;5.462;2023-05-19T05:04:53;102366.31;;;13.15
75431;BMP280;64127;51.488;5.462;2023-05-19T05:07:25;102358.41;;;13.15
75431;BMP280;64127;51.488;5.462;2023-05-19T05:09:57;102364.66;;;13.17
75431;BMP280;64127;51.488;5.462;2023-05-19T05:12:30;102349.66;;;13.16
75431;BMP280;64127;51.488;5.462;2023-05-19T05:15:04;102361.38;;;13.21
75431;BMP280;64127;51.488;5.462;2023-05-19T05:17:37;102367.94;;;13.29
75431;BMP280;64127;51.488;5.462;2023-05-19T05:20:10;102367.28;;;13.33
75431;BMP280;64127;51.488;5.462;2023-05-19T05:22:43;102371.25;;;13.41
75431;BMP280;64127;51.488;5.462;2023-05-19T05:25:16;102356.09;;;13.37
75431;BMP280;64127;51.488;5.462;2023-05-19T05:27:49;102372.75;;;13.52
75431;BMP280;64127;51.488;5.462;2023-05-19T05:30:21;102363.09;;;13.53
75431;BMP280;64127;51.488;5.462;2023-05-19T05:32:53;102377.03;;;13.66
75431;BMP280;64127;51.488;5.462;2023-05-19T05:35:25;102381.16;;;13.78
75431;BMP280;64127;51.488;5.462;2023-05-19T05:37:57;102380.00;;;13.89
75431;BMP280;64127;51.488;5.462;2023-05-19T05:40:29;102383.97;;;13.97
75431;BMP280;64127;51.488;5.462;2023-05-19T05:43:01;102375.34;;;14.01
75431;BMP280;64127;51.488;5.462;2023-05-19T05:45:33;102370.63;;;14.11
75431;BMP280;64127;51.488;5.462;2023-05-19T05:48:06;102369.63;;;14.26
75431;BMP280;64127;51.488;5.462;2023-05-19T05:50:38;102372.03;;;14.37
75431;BMP280;64127;51.488;5.462;2023-05-19T05:53:18;102370.66;;;14.45
75431;BMP280;64127;51.488;5.462;2023-05-19T05:55:50;102373.53;;;14.50
75431;BMP280;64127;51.488;5.462;2023-05-19T05:58:24;102363.38;;;14.57
75431;BMP280;64127;51.488;5.462;2023-05-19T06:00:56;102358.78;;;14.71
75431;BMP280;64127;51.488;5.462;2023-05-19T06:03:28;102364.59;;;14.82
75431;BMP280;64127;51.488;5.462;2023-05-19T06:06:03;102355.84;;;14.83
75431;BMP280;64127;51.488;5.462;2023-05-19T06:08:35;102370.41;;;14.92
75431;BMP280;64127;51.488;5.462;2023-05-19T06:11:07;102367.16;;;14.98
75431;BMP280;64127;51.488;5.462;2023-05-19T06:13:40;102383.13;;;15.01
75431;BMP280;64127;51.488;5.462;2023-05-19T06:16:12;102349.28;;;14.75
75431;BMP280;64127;51.488;5.462;2023-05-19T06:18:44;102379.91;;;14.89
75431;BMP280;64127;51.488;5.462;2023-05-19T06:21:16;102382.06;;;14.97
75431;BMP280;64127;51.488;5.462;2023-05-19T06:23:48;102377.16;;;15.05
75431;BMP280;64127;51.488;5.462;2023-05-19T06:26:20;102382.88;;;15.14
75431;BMP280;64127;51.488;5.462;2023-05-19T06:28:52;102374.88;;;15.30
75431;BMP280;64127;51.488;5.462;2023-05-19T06:31:24;102377.31;;;15.45
75431;BMP280;64127;51.488;5.462;2023-05-19T06:33:57;102383.44;;;15.61
75431;BMP280;64127;51.488;5.462;2023-05-19T06:36:29;102381.84;;;15.84
75431;BMP280;64127;51.488;5.462;2023-05-19T06:39:02;102384.28;;;15.99
75431;BMP280;64127;51.488;5.462;2023-05-19T06:41:34;102374.34;;;16.14
75431;BMP280;64127;51.488;5.462;2023-05-19T06:44:06;102378.28;;;16.23
75431;BMP280;64127;51.488;5.462;2023-05-19T06:46:39;102374.31;;;16.33
75431;BMP280;64127;51.488;5.462;2023-05-19T06:49:11;102343.84;;;16.22
75431;BMP280;64127;51.488;5.462;2023-05-19T06:51:43;102366.06;;;16.46
75431;BMP280;64127;51.488;5.462;2023-05-19T06:54:16;102370.34;;;16.44
75431;BMP280;64127;51.488;5.462;2023-05-19T06:56:48;102377.34;;;16.42
75431;BMP280;64127;51.488;5.462;2023-05-19T06:59:20;102380.00;;;16.42
75431;BMP280;64127;51.488;5.462;2023-05-19T07:01:53;102368.13;;;16.53
75431;BMP280;64127;51.488;5.462;2023-05-19T07:04:25;102370.47;;;16.66
75431;BMP280;64127;51.488;5.462;2023-05-19T07:06:58;102368.06;;;16.72
75431;BMP280;64127;51.488;5.462;2023-05-19T07:09:30;102369.34;;;16.82
75431;BMP280;64127;51.488;5.462;2023-05-19T07:12:02;102368.28;;;16.99
75431;BMP280;64127;51.488;5.462;2023-05-19T07:14:34;102370.75;;;17.17
75431;BMP280;64127;51.488;5.462;2023-05-19T07:17:07;102369.78;;;17.37
75431;BMP280;64127;51.488;5.462;2023-05-19T07:19:39;102360.44;;;17.47
75431;BMP280;64127;51.488;5.462;2023-05-19T07:22:11;102363.38;;;17.54
75431;BMP280;64127;51.488;5.462;2023-05-19T07:24:43;102373.63;;;17.67
75431;BMP280;64127;51.488;5.462;2023-05-19T07:27:15;102367.81;;;17.78
75431;BMP280;64127;51.488;5.462;2023-05-19T07:29:47;102376.16;;;17.87
75431;BMP280;64127;51.488;5.462;2023-05-19T07:32:19;102367.78;;;18.00
75431;BMP280;64127;51.488;5.462;2023-05-19T07:34:51;102363.16;;;18.19
75431;BMP280;64127;51.488;5.462;2023-05-19T07:37:23;102355.03;;;18.40
75431;BMP280;64127;51.488;5.462;2023-05-19T07:39:55;102359.91;;;18.52
75431;BMP280;64127;51.488;5.462;2023-05-19T07:42:27;102354.88;;;18.59
75431;BMP280;64127;51.488;5.462;2023-05-19T07:44:59;102360.19;;;18.59
75431;BMP280;64127;51.488;5.462;2023-05-19T07:47:32;102360.31;;;18.64
75431;BMP280;64127;51.488;5.462;2023-05-19T07:50:04;102355.16;;;18.68
75431;BMP280;64127;51.488;5.462;2023-05-19T07:52:36;102349.94;;;18.71
75431;BMP280;64127;51.488;5.462;2023-05-19T07:55:08;102346.34;;;18.69
75431;BMP280;64127;51.488;5.462;2023-05-19T07:57:42;102349.03;;;18.71
75431;BMP280;64127;51.488;5.462;2023-05-19T08:00:15;102348.63;;;18.86
75431;BMP280;64127;51.488;5.462;2023-05-19T08:02:47;102345.88;;;18.83
75431;BMP280;64127;51.488;5.462;2023-05-19T08:05:19;102343.97;;;18.79
75431;BMP280;64127;51.488;5.462;2023-05-19T08:07:51;102351.09;;;18.80
75431;BMP280;64127;51.488;5.462;2023-05-19T08:10:23;102351.88;;;18.77
75431;BMP280;64127;51.488;5.462;2023-05-19T08:12:55;102342.22;;;18.79
75431;BMP280;64127;51.488;5.462;2023-05-19T08:15:27;102341.25;;;18.77
75431;BMP280;64127;51.488;5.462;2023-05-19T08:17:59;102346.81;;;18.85
75431;BMP280;64127;51.488;5.462;2023-05-19T08:20:32;102338.38;;;18.98
75431;BMP280;64127;51.488;5.462;2023-05-19T08:23:05;102339.06;;;19.19
75431;BMP280;64127;51.488;5.462;2023-05-19T08:25:37;102334.13;;;19.31
75431;BMP280;64127;51.488;5.462;2023-05-19T08:28:09;102318.91;;;19.55
75431;BMP280;64127;51.488;5.462;2023-05-19T08:30:41;102321.06;;;19.68
75431;BMP280;64127;51.488;5.462;2023-05-19T08:33:13;102323.13;;;19.79
75431;BMP280;64127;51.488;5.462;2023-05-19T08:35:46;102319.50;;;19.77
75431;BMP280;64127;51.488;5.462;2023-05-19T08:38:18;102313.50;;;19.84
75431;BMP280;64127;51.488;5.462;2023-05-19T08:40:51;102307.31;;;19.85
75431;BMP280;64127;51.488;5.462;2023-05-19T08:43:23;102302.44;;;20.01
75431;BMP280;64127;51.488;5.462;2023-05-19T08:45:55;102303.91;;;20.23
75431;BMP280;64127;51.488;5.462;2023-05-19T08:48:30;102298.13;;;20.39
75431;BMP280;64127;51.488;5.462;2023-05-19T08:51:19;102296.84;;;20.59
75431;BMP280;64127;51.488;5.462;2023-05-19T08:54:00;102300.16;;;20.87
75431;BMP280;64127;51.488;5.462;2023-05-19T08:56:36;102295.56;;;21.17
75431;BMP280;64127;51.488;5.462;2023-05-19T08:59:09;102281.59;;;21.29
75431;BMP280;64127;51.488;5.462;2023-05-19T09:01:44;102280.84;;;21.37
75431;BMP280;64127;51.488;5.462;2023-05-19T09:04:19;102288.97;;;21.40
75431;BMP280;64127;51.488;5.462;2023-05-19T09:06:51;102288.19;;;21.47
75431;BMP280;64127;51.488;5.462;2023-05-19T09:09:24;102279.47;;;21.56
75431;BMP280;64127;51.488;5.462;2023-05-19T09:11:57;102282.09;;;21.53
75431;BMP280;64127;51.488;5.462;2023-05-19T09:14:29;102270.34;;;21.43
75431;BMP280;64127;51.488;5.462;2023-05-19T09:17:01;102263.13;;;21.39
75431;BMP280;64127;51.488;5.462;2023-05-19T09:19:34;102268.41;;;21.36
75431;BMP280;64127;51.488;5.462;2023-05-19T09:22:06;102268.28;;;21.30
75431;BMP280;64127;51.488;5.462;2023-05-19T09:24:38;102264.47;;;21.19
75431;BMP280;64127;51.488;5.462;2023-05-19T09:27:14;102260.94;;;21.20
75431;BMP280;64127;51.488;5.462;2023-05-19T09:29:51;102262.06;;;21.31
75431;BMP280;64127;51.488;5.462;2023-05-19T09:32:25;102259.59;;;21.40
75431;BMP280;64127;51.488;5.462;2023-05-19T09:34:58;102244.22;;;21.29
75431;BMP280;64127;51.488;5.462;2023-05-19T09:37:30;102248.66;;;21.28
75431;BMP280;64127;51.488;5.462;2023-05-19T09:40:03;102249.91;;;21.45
75431;BMP280;64127;51.488;5.462;2023-05-19T09:42:37;102244.72;;;21.54
75431;BMP280;64127;51.488;5.462;2023-05-19T09:45:10;102237.00;;;21.69
75431;BMP280;64127;51.488;5.462;2023-05-19T09:47:42;102254.09;;;21.79
75431;BMP280;64127;51.488;5.462;2023-05-19T09:50:14;102248.84;;;21.84
75431;BMP280;64127;51.488;5.462;2023-05-19T09:52:48;102244.75;;;22.02
75431;BMP280;64127;51.488;5.462;2023-05-19T09:55:25;102252.91;;;22.08
75431;BMP280;64127;51.488;5.462;2023-05-19T09:57:59;102249.13;;;21.97
75431;BMP280;64127;51.488;5.462;2023-05-19T10:00:36;102247.47;;;22.04
75431;BMP280;64127;51.488;5.462;2023-05-19T10:03:08;102243.22;;;22.15
75431;BMP280;64127;51.488;5.462;2023-05-19T10:05:42;102234.44;;;22.23
75431;BMP280;64127;51.488;5.462;2023-05-19T10:08:15;102237.28;;;22.34
75431;BMP280;64127;51.488;5.462;2023-05-19T10:10:48;102234.00;;;22.52
75431;BMP280;64127;51.488;5.462;2023-05-19T10:13:21;102243.91;;;22.59
75431;BMP280;64127;51.488;5.462;2023-05-19T10:15:56;102240.38;;;22.61
75431;BMP280;64127;51.488;5.462;2023-05-19T10:18:32;102247.59;;;22.65
75431;BMP280;64127;51.488;5.462;2023-05-19T10:21:04;102240.44;;;22.64
75431;BMP280;64127;51.488;5.462;2023-05-19T10:23:38;102238.75;;;22.69
75431;BMP280;64127;51.488;5.462;2023-05-19T10:26:11;102233.53;;;22.79
75431;BMP280;64127;51.488;5.462;2023-05-19T10:28:44;102227.31;;;22.81
75431;BMP280;64127;51.488;5.462;2023-05-19T10:31:20;102224.81;;;22.95
75431;BMP280;64127;51.488;5.462;2023-05-19T10:34:22;102214.56;;;23.28
75431;BMP280;64127;51.488;5.462;2023-05-19T10:37:23;102218.88;;;23.94
75431;BMP280;64127;51.488;5.462;2023-05-19T10:39:58;102214.47;;;24.05
75431;BMP280;64127;51.488;5.462;2023-05-19T10:42:39;102210.69;;;23.82
75431;BMP280;64127;51.488;5.462;2023-05-19T10:45:20;102201.63;;;23.70
75431;BMP280;64127;51.488;5.462;2023-05-19T10:47:53;102208.84;;;23.74
75431;BMP280;64127;51.488;5.462;2023-05-19T10:50:26;102211.59;;;23.84
75431;BMP280;64127;51.488;5.462;2023-05-19T10:53:01;102209.84;;;23.86
75431;BMP280;64127;51.488;5.462;2023-05-19T10:55:53;102205.31;;;23.79
75431;BMP280;64127;51.488;5.462;2023-05-19T11:01:19;102196.41;;;23.84
75431;BMP280;64127;51.488;5.462;2023-05-19T11:03:54;102197.25;;;23.76
75431;BMP280;64127;51.488;5.462;2023-05-19T11:06:30;102206.03;;;23.64
75431;BMP280;64127;51.488;5.462;2023-05-19T11:09:13;102206.06;;;23.65
75431;BMP280;64127;51.488;5.462;2023-05-19T11:11:50;102194.50;;;23.71
75431;BMP280;64127;51.488;5.462;2023-05-19T11:14:26;102188.25;;;23.70
75431;BMP280;64127;51.488;5.462;2023-05-19T11:16:59;102198.16;;;23.81
75431;BMP280;64127;51.488;5.462;2023-05-19T11:19:34;102196.44;;;23.86
75431;BMP280;64127;51.488;5.462;2023-05-19T11:22:09;102201.78;;;23.86
75431;BMP280;64127;51.488;5.462;2023-05-19T11:24:47;102192.72;;;23.71
75431;BMP280;64127;51.488;5.462;2023-05-19T11:27:32;102191.66;;;23.54
75431;BMP280;64127;51.488;5.462;2023-05-19T11:32:39;102195.94;;;23.40
75431;BMP280;64127;51.488;5.462;2023-05-19T11:35:13;102197.03;;;23.54
75431;BMP280;64127;51.488;5.462;2023-05-19T11:37:48;102197.88;;;23.53
75431;BMP280;64127;51.488;5.462;2023-05-19T11:40:24;102168.34;;;23.44
75431;BMP280;64127;51.488;5.462;2023-05-19T11:42:56;102190.84;;;23.61
75431;BMP280;64127;51.488;5.462;2023-05-19T11:45:30;102177.50;;;23.67
75431;BMP280;64127;51.488;5.462;2023-05-19T11:48:04;102183.72;;;23.63
75431;BMP280;64127;51.488;5.462;2023-05-19T11:50:42;102177.56;;;23.72
75431;BMP280;64127;51.488;5.462;2023-05-19T11:53:17;102168.59;;;23.71
75431;BMP280;64127;51.488;5.462;2023-05-19T11:55:50;102181.16;;;23.76
75431;BMP280;64127;51.488;5.462;2023-05-19T11:58:26;102164.22;;;23.80
75431;BMP280;64127;51.488;5.462;2023-05-19T12:01:03;102151.75;;;23.83
75431;BMP280;64127;51.488;5.462;2023-05-19T12:03:35;102164.16;;;23.73
75431;BMP280;64127;51.488;5.462;2023-05-19T12:06:09;102154.31;;;23.69
75431;BMP280;64127;51.488;5.462;2023-05-19T12:08:41;102154.25;;;23.66
75431;BMP280;64127;51.488;5.462;2023-05-19T12:11:13;102154.22;;;23.63
75431;BMP280;64127;51.488;5.462;2023-05-19T12:13:49;102157.00;;;23.69
75431;BMP280;64127;51.488;5.462;2023-05-19T12:16:34;102143.69;;;23.85
75431;BMP280;64127;51.488;5.462;2023-05-19T12:19:07;102155.59;;;24.14
75431;BMP280;64127;51.488;5.462;2023-05-19T12:21:40;102143.13;;;24.25
75431;BMP280;64127;51.488;5.462;2023-05-19T12:24:13;102149.50;;;24.38
75431;BMP280;64127;51.488;5.462;2023-05-19T12:26:45;102144.06;;;24.30
75431;BMP280;64127;51.488;5.462;2023-05-19T12:29:17;102137.84;;;24.31
75431;BMP280;64127;51.488;5.462;2023-05-19T12:31:49;102142.28;;;24.29
75431;BMP280;64127;51.488;5.462;2023-05-19T12:34:22;102137.78;;;24.25
75431;BMP280;64127;51.488;5.462;2023-05-19T12:36:54;102126.19;;;24.29
75431;BMP280;64127;51.488;5.462;2023-05-19T12:39:26;102133.38;;;24.36
75431;BMP280;64127;51.488;5.462;2023-05-19T12:42:09;102133.41;;;24.45
75431;BMP280;64127;51.488;5.462;2023-05-19T12:44:48;102129.88;;;24.52
75431;BMP280;64127;51.488;5.462;2023-05-19T12:47:28;102127.25;;;24.63
75431;BMP280;64127;51.488;5.462;2023-05-19T12:50:07;102126.34;;;24.62
75431;BMP280;64127;51.488;5.462;2023-05-19T12:52:46;102103.09;;;24.61
75431;BMP280;64127;51.488;5.462;2023-05-19T12:55:19;102125.53;;;24.80
75431;BMP280;64127;51.488;5.462;2023-05-19T12:57:53;102121.13;;;24.87
75431;BMP280;64127;51.488;5.462;2023-05-19T13:00:28;102110.41;;;24.91
75431;BMP280;64127;51.488;5.462;2023-05-19T13:03:05;102121.16;;;24.94
75431;BMP280;64127;51.488;5.462;2023-05-19T13:05:40;102109.56;;;25.00
75431;BMP280;64127;51.488;5.462;2023-05-19T13:08:18;102110.47;;;25.06
75431;BMP280;64127;51.488;5.462;2023-05-19T13:10:51;102107.75;;;25.05
75431;BMP280;64127;51.488;5.462;2023-05-19T13:13:23;102115.81;;;25.02
75431;BMP280;64127;51.488;5.462;2023-05-19T13:15:55;102105.09;;;25.09
75431;BMP280;64127;51.488;5.462;2023-05-19T13:18:27;102092.56;;;25.07
75431;BMP280;64127;51.488;5.462;2023-05-19T13:21:02;102086.31;;;25.17
75431;BMP280;64127;51.488;5.462;2023-05-19T13:23:35;102086.31;;;25.26
75431;BMP280;64127;51.488;5.462;2023-05-19T13:26:07;102076.44;;;25.25
75431;BMP280;64127;51.488;5.462;2023-05-19T13:28:39;102088.97;;;25.18
75431;BMP280;64127;51.488;5.462;2023-05-19T13:31:11;102059.41;;;25.02
75431;BMP280;64127;51.488;5.462;2023-05-19T13:33:43;102097.03;;;25.09
75431;BMP280;64127;51.488;5.462;2023-05-19T13:36:15;102088.00;;;24.88
75431;BMP280;64127;51.488;5.462;2023-05-19T13:38:47;102088.91;;;24.84
75431;BMP280;64127;51.488;5.462;2023-05-19T13:41:23;102088.84;;;24.81
75431;BMP280;64127;51.488;5.462;2023-05-19T13:43:59;102092.53;;;24.96
75431;BMP280;64127;51.488;5.462;2023-05-19T13:46:31;102101.50;;;25.07
75431;BMP280;64127;51.488;5.462;2023-05-19T13:49:17;102089.84;;;25.05
75431;BMP280;64127;51.488;5.462;2023-05-19T13:51:49;102083.59;;;25.09
75431;BMP280;64127;51.488;5.462;2023-05-19T13:54:21;102073.75;;;25.07
75431;BMP280;64127;51.488;5.462;2023-05-19T13:56:53;102077.34;;;25.06
75431;BMP280;64127;51.488;5.462;2023-05-19T13:59:25;102081.81;;;25.13
75431;BMP280;64127;51.488;5.462;2023-05-19T14:01:57;102080.91;;;25.12
75431;BMP280;64127;51.488;5.462;2023-05-19T14:04:29;102076.44;;;25.19
75431;BMP280;64127;51.488;5.462;2023-05-19T14:07:01;102082.72;;;25.13
75431;BMP280;64127;51.488;5.462;2023-05-19T14:09:33;102071.06;;;25.02
75431;BMP280;64127;51.488;5.462;2023-05-19T14:12:05;102063.88;;;24.92
75431;BMP280;64127;51.488;5.462;2023-05-19T14:14:38;102060.28;;;24.92
75431;BMP280;64127;51.488;5.462;2023-05-19T14:17:10;102063.88;;;24.95
75431;BMP280;64127;51.488;5.462;2023-05-19T14:19:42;102063.88;;;24.92
75431;BMP280;64127;51.488;5.462;2023-05-19T14:22:14;102068.34;;;24.89
75431;BMP280;64127;51.488;5.462;2023-05-19T14:24:46;102065.56;;;24.77
75431;BMP280;64127;51.488;5.462;2023-05-19T14:27:18;102069.13;;;24.66
75431;BMP280;64127;51.488;5.462;2023-05-19T14:29:50;102066.44;;;24.69
75431;BMP280;64127;51.488;5.462;2023-05-19T14:32:22;102062.03;;;24.79
75431;BMP280;64127;51.488;5.462;2023-05-19T14:34:54;102032.47;;;24.76
75431;BMP280;64127;51.488;5.462;2023-05-19T14:37:26;102056.72;;;25.11
75431;BMP280;64127;51.488;5.462;2023-05-19T14:39:59;102045.09;;;25.24
75431;BMP280;64127;51.488;5.462;2023-05-19T14:42:31;102060.34;;;25.25
75431;BMP280;64127;51.488;5.462;2023-05-19T14:45:04;102053.13;;;24.91
75431;BMP280;64127;51.488;5.462;2023-05-19T14:47:36;102069.22;;;24.94
75431;BMP280;64127;51.488;5.462;2023-05-19T14:50:08;102060.28;;;24.92
75431;BMP280;64127;51.488;5.462;2023-05-19T14:52:40;102062.09;;;24.93
75431;BMP280;64127;51.488;5.462;2023-05-19T14:55:12;102059.38;;;24.87